Time;durP1;ratioP1;P1;durP2;ratioP2;P2;SDS_P1;SDS_P2;PMS_P1;PMS_P2;Temp;Humidity;BMP_temperature;BMP_pressure;BME280_temperature;BME280_humidity;BME280_pressure;Samples;Min_cycle;Max_cycle;Signal;HPM_P1;HPM_P2
2024/04/22 00:00:53;;;;;;;845.03;789.43;;;0.40;99.90;;;;;;5527417;25;20460;-66
2024/04/22 00:03:21;;;;;;;855.27;797.17;;;0.40;99.90;;;;;;5527224;25;20640;-66
2024/04/22 00:05:56;;;;;;;863.80;802.70;;;0.40;99.90;;;;;;5527821;25;21030;-66
2024/04/22 00:08:22;;;;;;;871.87;807.33;;;0.40;99.90;;;;;;5496227;25;20461;-66
2024/04/22 00:11:00;;;;;;;850.17;785.43;;;0.40;99.90;;;;;;5496911;26;20995;-67
2024/04/22 00:13:26;;;;;;;858.43;793.63;;;0.50;99.90;;;;;;5524457;25;20946;-67
2024/04/22 00:15:55;;;;;;;857.60;788.67;;;0.40;99.90;;;;;;5490159;26;20470;-67
2024/04/22 00:18:23;;;;;;;851.63;782.63;;;0.40;99.90;;;;;;5490006;26;20897;-67
2024/04/22 00:20:52;;;;;;;858.27;786.77;;;0.50;99.90;;;;;;5512024;26;20849;-66
2024/04/22 00:23:17;;;;;;;881.27;809.47;;;0.50;99.90;;;;;;5496638;25;20575;-67
2024/04/22 00:25:46;;;;;;;872.87;803.40;;;0.50;99.90;;;;;;5510747;26;20464;-66
2024/04/22 00:28:12;;;;;;;890.90;827.37;;;0.50;99.90;;;;;;5513899;25;20948;-66
2024/04/22 00:30:40;;;;;;;896.73;831.83;;;0.70;99.90;;;;;;5508972;26;20468;-67
2024/04/22 00:33:06;;;;;;;913.97;851.70;;;0.80;99.90;;;;;;5499664;25;20275;-66
2024/04/22 00:35:37;;;;;;;923.20;860.13;;;0.90;99.90;;;;;;5489519;26;20474;-66
2024/04/22 00:38:03;;;;;;;919.27;856.60;;;0.90;99.90;;;;;;5500339;26;20345;-67
2024/04/22 00:40:32;;;;;;;925.43;860.77;;;0.90;99.90;;;;;;5523857;25;20472;-67
2024/04/22 00:42:58;;;;;;;923.37;858.50;;;1.00;99.90;;;;;;5513095;26;20575;-67
2024/04/22 00:45:27;;;;;;;927.10;861.80;;;0.90;99.90;;;;;;5510578;25;20461;-66
2024/04/22 00:47:53;;;;;;;924.87;858.37;;;0.90;99.90;;;;;;5489577;26;20928;-67
2024/04/22 00:50:21;;;;;;;924.00;856.73;;;0.90;99.90;;;;;;5519557;26;20523;-66
2024/04/22 00:52:51;;;;;;;930.57;860.67;;;0.90;99.90;;;;;;5525465;25;20461;-67
2024/04/22 00:55:20;;;;;;;918.37;849.40;;;0.70;99.90;;;;;;5526467;25;20521;-66
2024/04/22 00:57:46;;;;;;;916.00;846.07;;;0.60;99.90;;;;;;5520149;25;20446;-67
2024/04/22 01:00:14;;;;;;;921.53;851.90;;;0.50;99.90;;;;;;5489248;26;20453;-66
2024/04/22 01:02:40;;;;;;;901.37;828.10;;;0.50;99.90;;;;;;5488424;26;20808;-67
2024/04/22 01:05:09;;;;;;;930.57;852.70;;;0.60;99.90;;;;;;5516125;26;20532;-67
2024/04/22 01:07:36;;;;;;;933.22;859.75;;;0.70;99.90;;;;;;5522407;25;20464;-66
2024/04/22 01:10:08;;;;;;;945.87;873.90;;;0.70;99.90;;;;;;5489453;26;20288;-66
2024/04/22 01:12:34;;;;;;;948.17;874.23;;;0.70;99.90;;;;;;5489031;26;20462;-66
2024/04/22 01:15:03;;;;;;;947.87;876.40;;;0.70;99.90;;;;;;5489069;26;20635;-67
2024/04/22 01:17:36;;;;;;;941.37;875.23;;;0.80;99.90;;;;;;5489065;26;20458;-66
2024/04/22 01:20:06;;;;;;;944.70;872.53;;;0.90;99.90;;;;;;5488710;26;20462;-65
2024/04/22 01:22:34;;;;;;;944.77;877.83;;;1.20;99.90;;;;;;5506123;26;20465;-67
2024/04/22 01:25:04;;;;;;;949.63;881.63;;;1.20;99.90;;;;;;5525769;25;20520;-67
2024/04/22 01:27:31;;;;;;;946.17;885.30;;;1.30;99.90;;;;;;5525823;25;20508;-66
2024/04/22 01:30:00;;;;;;;963.87;896.77;;;1.30;99.90;;;;;;5525990;25;20465;-66
2024/04/22 01:32:26;;;;;;;948.50;877.50;;;1.20;99.90;;;;;;5509635;25;20570;-66
2024/04/22 01:34:59;;;;;;;942.87;873.17;;;1.10;99.90;;;;;;5517824;25;20848;-67
2024/04/22 01:37:25;;;;;;;931.60;859.53;;;1.10;99.90;;;;;;5488930;26;20465;-66
2024/04/22 01:39:56;;;;;;;961.33;887.23;;;1.00;99.90;;;;;;5511778;26;20457;-67
2024/04/22 01:42:22;;;;;;;959.43;886.83;;;1.00;99.90;;;;;;5494127;25;20589;-66
2024/04/22 01:44:51;;;;;;;964.77;891.17;;;1.00;99.90;;;;;;5489028;26;20518;-67
2024/04/22 01:47:17;;;;;;;967.77;895.03;;;1.10;99.90;;;;;;5488629;26;20509;-67
2024/04/22 01:49:46;;;;;;;961.13;882.43;;;1.10;99.90;;;;;;5488759;26;21002;-67
2024/04/22 01:52:13;;;;;;;953.80;886.60;;;1.10;99.90;;;;;;5486312;26;20466;-66
2024/04/22 01:54:42;;;;;;;952.67;886.60;;;1.20;99.90;;;;;;5508183;26;20521;-67
2024/04/22 01:57:10;;;;;;;965.83;896.77;;;1.20;99.90;;;;;;5525981;25;21051;-67
2024/04/22 01:59:39;;;;;;;955.63;890.77;;;1.20;99.90;;;;;;5506081;25;20457;-66
2024/04/22 02:02:04;;;;;;;896.40;846.73;;;1.20;99.90;;;;;;5487945;26;20668;-67
2024/04/22 02:04:33;;;;;;;941.40;887.20;;;1.40;99.90;;;;;;5505696;26;20535;-67
2024/04/22 02:06:59;;;;;;;940.10;885.33;;;1.40;99.90;;;;;;5525234;25;20580;-67
2024/04/22 02:09:27;;;;;;;936.67;882.47;;;1.30;99.90;;;;;;5525449;25;20460;-67
2024/04/22 02:11:53;;;;;;;926.33;873.63;;;1.40;99.90;;;;;;5524594;25;20224;-67
2024/04/22 02:14:24;;;;;;;934.67;881.20;;;1.30;99.90;;;;;;5525266;25;20562;-67
2024/04/22 02:16:50;;;;;;;928.60;876.10;;;1.30;99.90;;;;;;5526119;25;20452;-67
2024/04/22 02:19:19;;;;;;;934.03;881.77;;;1.30;99.90;;;;;;5525961;25;21066;-67
2024/04/22 02:21:44;;;;;;;974.97;914.70;;;1.20;99.90;;;;;;5524692;25;20223;-66
2024/04/22 02:24:13;;;;;;;959.90;902.23;;;1.30;99.90;;;;;;5525348;25;20460;-67
2024/04/22 02:26:39;;;;;;;947.63;892.07;;;1.30;99.90;;;;;;5505202;25;20571;-67
2024/04/22 02:29:07;;;;;;;923.53;871.70;;;1.40;99.90;;;;;;5488111;26;20477;-66
2024/04/22 02:31:36;;;;;;;933.63;881.27;;;1.40;99.90;;;;;;5520836;26;20641;-66
2024/04/22 02:34:05;;;;;;;906.67;857.87;;;1.50;99.90;;;;;;5525060;25;20468;-67
2024/04/22 02:36:31;;;;;;;905.43;857.80;;;1.50;99.90;;;;;;5525022;25;20943;-67
2024/04/22 02:38:59;;;;;;;886.07;840.70;;;1.50;99.90;;;;;;5524735;25;20460;-66
2024/04/22 02:41:25;;;;;;;829.03;789.17;;;1.50;99.90;;;;;;5523626;25;20275;-67
2024/04/22 02:43:53;;;;;;;875.53;831.63;;;1.60;99.90;;;;;;5524748;25;20949;-67
2024/04/22 02:46:19;;;;;;;865.03;822.27;;;1.50;99.90;;;;;;5510092;25;20241;-67
2024/04/22 02:48:50;;;;;;;798.83;762.87;;;1.60;99.90;;;;;;5487694;26;21118;-67
2024/04/22 02:51:16;;;;;;;714.33;684.80;;;1.70;99.90;;;;;;5517034;26;20679;-67
2024/04/22 02:53:44;;;;;;;683.53;654.80;;;1.80;99.90;;;;;;5503143;25;20465;-67
2024/04/22 02:56:10;;;;;;;771.73;737.53;;;1.80;99.90;;;;;;5487507;26;20759;-67
2024/04/22 02:58:39;;;;;;;814.20;776.37;;;1.80;99.90;;;;;;5506590;26;20480;-67
2024/04/22 03:01:05;;;;;;;777.00;742.30;;;1.70;99.90;;;;;;5498227;25;20233;-67
2024/04/22 03:03:34;;;;;;;747.70;715.13;;;1.70;99.90;;;;;;5488450;26;21154;-67
2024/04/22 03:06:03;;;;;;;655.93;629.00;;;1.70;99.90;;;;;;5516013;26;20532;-66
2024/04/22 03:08:31;;;;;;;763.13;730.07;;;1.70;99.90;;;;;;5510624;25;21086;-67
2024/04/22 03:10:58;;;;;;;788.97;755.00;;;1.70;99.90;;;;;;5491226;26;20951;-67
2024/04/22 03:13:26;;;;;;;895.43;850.33;;;1.60;99.90;;;;;;5505596;26;20521;-67
2024/04/22 03:15:52;;;;;;;930.03;879.87;;;1.60;99.90;;;;;;5527905;25;20448;-66
2024/04/22 03:18:21;;;;;;;969.93;909.93;;;1.70;99.90;;;;;;5528511;25;20464;-66
2024/04/22 03:20:46;;;;;;;949.50;891.43;;;1.70;99.90;;;;;;5506283;25;20514;-66
2024/04/22 03:23:17;;;;;;;945.03;886.13;;;1.80;99.90;;;;;;5489819;26;20474;-67
2024/04/22 03:25:43;;;;;;;933.60;879.13;;;1.90;99.90;;;;;;5490875;26;20461;-66
2024/04/22 03:28:12;;;;;;;928.97;875.23;;;1.90;99.90;;;;;;5490729;26;20450;-67
2024/04/22 03:30:38;;;;;;;941.30;883.53;;;2.00;99.90;;;;;;5509939;26;20448;-67
2024/04/22 03:33:06;;;;;;;946.57;886.07;;;2.00;99.90;;;;;;5526671;25;21096;-67
2024/04/22 03:35:33;;;;;;;960.70;894.40;;;2.00;99.90;;;;;;5494198;25;20332;-67
2024/04/22 03:38:01;;;;;;;968.17;900.00;;;1.90;99.90;;;;;;5490617;26;20836;-67
2024/04/22 03:40:32;;;;;;;960.43;894.43;;;2.00;99.90;;;;;;5522538;26;20464;-66
2024/04/22 03:43:01;;;;;;;962.70;894.50;;;2.00;99.90;;;;;;5517371;25;20518;-67
2024/04/22 03:45:29;;;;;;;965.27;896.27;;;1.90;99.90;;;;;;5491892;26;20574;-67
2024/04/22 03:50:43;;;;;;;984.50;904.33;;;1.90;99.90;;;;;;5525787;26;20503;-67
2024/04/22 03:53:11;;;;;;;994.33;915.37;;;1.90;99.90;;;;;;5516765;26;20464;-67
2024/04/22 03:55:42;;;;;;;983.47;907.37;;;1.90;99.90;;;;;;5523197;25;20948;-67
2024/04/22 03:58:11;;;;;;;980.27;899.77;;;1.90;99.90;;;;;;5502089;26;20468;-66
2024/04/22 04:00:39;;;;;;;977.67;897.00;;;1.90;99.90;;;;;;5507835;25;20506;-67
2024/04/22 04:03:05;;;;;;;993.47;914.10;;;1.90;99.90;;;;;;5489566;26;20473;-67
2024/04/22 04:05:33;;;;;;;998.20;919.10;;;1.90;99.90;;;;;;5490365;26;20588;-67
2024/04/22 04:07:59;;;;;;;996.47;917.67;;;1.90;99.90;;;;;;5490365;26;20336;-67
2024/04/22 04:10:28;;;;;;;995.83;918.57;;;2.00;99.90;;;;;;5490286;26;20465;-67
2024/04/22 04:12:56;;;;;;;994.43;917.20;;;2.00;99.90;;;;;;5512554;26;20328;-67
2024/04/22 04:15:24;;;;;;;968.17;894.77;;;2.10;99.90;;;;;;5525720;25;20532;-65
2024/04/22 04:17:50;;;;;;;961.37;889.20;;;2.10;99.90;;;;;;5527014;25;21152;-67
2024/04/22 04:20:19;;;;;;;960.00;887.70;;;2.10;99.90;;;;;;5513189;25;20470;-67
2024/04/22 04:22:44;;;;;;;948.10;876.00;;;2.10;99.90;;;;;;5510489;26;20295;-66
2024/04/22 04:25:13;;;;;;;967.80;893.23;;;2.20;99.90;;;;;;5499381;25;20575;-67
2024/04/22 04:27:39;;;;;;;954.00;881.13;;;2.20;99.90;;;;;;5509613;26;20259;-67
2024/04/22 04:30:10;;;;;;;972.43;894.70;;;2.20;99.90;;;;;;5500716;25;20474;-67
2024/04/22 04:32:36;;;;;;;964.17;888.47;;;2.20;99.90;;;;;;5508020;26;20335;-67
2024/04/22 04:35:05;;;;;;;998.97;917.40;;;2.20;99.90;;;;;;5516770;25;20462;-66
2024/04/22 04:37:31;;;;;;;987.73;902.73;;;2.30;99.90;;;;;;5489806;26;20343;-67
2024/04/22 04:39:59;;;;;;;981.27;895.40;;;2.30;99.90;;;;;;5514144;26;20468;-66
2024/04/22 04:42:25;;;;;;;972.80;889.30;;;2.30;99.90;;;;;;5525720;25;20859;-66
2024/04/22 04:44:54;;;;;;;961.50;875.90;;;2.30;99.90;;;;;;5526544;25;20473;-66
2024/04/22 04:47:22;;;;;;;972.70;883.33;;;2.40;99.90;;;;;;5512484;25;20341;-66
2024/04/22 04:49:50;;;;;;;967.60;879.23;;;2.50;99.90;;;;;;5496316;26;20505;-67
2024/04/22 04:52:16;;;;;;;968.33;880.83;;;2.50;99.90;;;;;;5525802;25;20599;-65
2024/04/22 04:54:45;;;;;;;956.80;872.03;;;2.60;99.90;;;;;;5526115;25;20480;-66
2024/04/22 04:57:10;;;;;;;952.23;868.63;;;2.60;99.90;;;;;;5514102;25;20228;-67
2024/04/22 04:59:39;;;;;;;960.53;878.07;;;2.70;99.90;;;;;;5489378;26;20470;-66
2024/04/22 05:02:05;;;;;;;952.83;872.00;;;2.80;99.90;;;;;;5499521;26;20528;-66
2024/04/22 05:04:36;;;;;;;977.43;894.37;;;2.90;99.90;;;;;;5526185;25;20472;-66
2024/04/22 05:07:02;;;;;;;988.67;903.40;;;2.90;99.90;;;;;;5510884;25;20576;-65
2024/04/22 05:09:30;;;;;;;982.67;901.17;;;3.00;99.90;;;;;;5526064;25;20464;-66
2024/04/22 05:11:56;;;;;;;963.63;887.57;;;3.10;99.90;;;;;;5525621;25;20465;-66
2024/04/22 05:14:24;;;;;;;963.17;884.37;;;3.20;99.90;;;;;;5495427;25;20469;-66
2024/04/22 05:16:50;;;;;;;974.63;894.63;;;3.20;99.90;;;;;;5496383;26;20327;-67
2024/04/22 05:19:19;;;;;;;963.47;889.17;;;3.30;99.90;;;;;;5526160;25;20456;-66
2024/04/22 05:21:47;;;;;;;960.87;887.67;;;3.40;99.90;;;;;;5494447;25;20227;-67
2024/04/22 05:24:18;;;;;;;974.07;896.70;;;3.40;99.90;;;;;;5526602;25;20517;-67
2024/04/22 05:26:44;;;;;;;964.43;888.87;;;3.40;99.90;;;;;;5511612;25;20472;-67
2024/04/22 05:29:12;;;;;;;957.33;883.07;;;3.50;99.90;;;;;;5514463;25;20940;-66
2024/04/22 05:31:38;;;;;;;970.90;892.70;;;3.50;99.90;;;;;;5492373;26;20466;-67
2024/04/22 05:36:53;;;;;;;942.37;862.80;;;3.50;99.90;;;;;;5507579;26;20280;-67
2024/04/22 05:39:22;;;;;;;936.73;860.67;;;3.60;99.90;;;;;;5503549;26;20468;-66
2024/04/22 05:41:50;;;;;;;940.90;863.13;;;3.60;99.90;;;;;;5509874;26;20595;-66
2024/04/22 05:44:19;;;;;;;939.20;860.10;;;3.70;99.90;;;;;;5511396;25;20522;-67
2024/04/22 05:46:47;;;;;;;940.50;859.37;;;3.70;99.90;;;;;;5523601;26;20524;-67
2024/04/22 05:49:16;;;;;;;925.13;845.97;;;3.80;99.90;;;;;;5522243;25;20572;-65
2024/04/22 05:51:44;;;;;;;926.30;847.40;;;3.80;99.90;;;;;;5525008;25;20472;-66
2024/04/22 05:54:13;;;;;;;930.87;853.60;;;3.90;99.90;;;;;;5498356;25;21040;-66
2024/04/22 05:56:43;;;;;;;930.07;851.67;;;4.00;99.90;;;;;;5488527;26;20514;-67
2024/04/22 05:59:09;;;;;;;927.53;848.13;;;4.20;99.90;;;;;;5500413;26;20469;-67
2024/04/22 06:01:38;;;;;;;931.43;856.03;;;4.30;99.90;;;;;;5524558;25;20566;-67
2024/04/22 06:04:04;;;;;;;930.23;854.37;;;4.40;99.90;;;;;;5499439;25;20462;-66
2024/04/22 06:06:33;;;;;;;926.90;859.57;;;4.50;99.90;;;;;;5505681;26;20524;-66
2024/04/22 06:08:59;;;;;;;924.00;857.90;;;4.70;99.90;;;;;;5525388;25;20573;-67
2024/04/22 06:11:30;;;;;;;912.63;850.10;;;4.70;99.90;;;;;;5524475;25;20871;-67
2024/04/22 06:13:56;;;;;;;912.87;856.77;;;4.90;99.90;;;;;;5524996;25;20554;-67
2024/04/22 06:16:26;;;;;;;900.53;846.23;;;5.00;99.90;;;;;;5525251;25;20464;-67
2024/04/22 06:18:52;;;;;;;885.37;832.50;;;5.20;99.90;;;;;;5509750;26;20341;-67
2024/04/22 06:21:21;;;;;;;856.63;806.17;;;5.30;99.90;;;;;;5510295;25;21023;-67
2024/04/22 06:23:47;;;;;;;776.53;735.67;;;5.40;99.90;;;;;;5502712;25;20525;-67
2024/04/22 06:26:16;;;;;;;616.13;587.77;;;5.60;99.90;;;;;;5516582;26;20578;-67
2024/04/22 06:28:44;;;;;;;452.83;433.83;;;5.60;99.90;;;;;;5525266;25;20499;-67
2024/04/22 06:31:13;;;;;;;356.93;343.20;;;5.70;99.90;;;;;;5525354;25;20464;-67
2024/04/22 06:33:42;;;;;;;306.73;295.37;;;5.70;99.90;;;;;;5524365;25;20480;-67
2024/04/22 06:36:11;;;;;;;251.60;241.60;;;5.70;99.90;;;;;;5525163;25;20456;-67
2024/04/22 06:38:37;;;;;;;240.00;231.17;;;5.70;99.90;;;;;;5523830;25;20457;-67
2024/04/22 06:41:05;;;;;;;174.53;167.53;;;5.80;99.90;;;;;;5525054;25;20781;-67
2024/04/22 06:43:31;;;;;;;148.70;142.63;;;5.70;99.90;;;;;;5524038;25;20803;-68
2024/04/22 06:46:03;;;;;;;145.27;139.27;;;5.70;99.90;;;;;;5524846;25;21024;-67
2024/04/22 06:48:28;;;;;;;174.27;167.17;;;5.60;99.90;;;;;;5524707;25;20524;-67
2024/04/22 06:50:58;;;;;;;201.90;193.50;;;5.70;99.90;;;;;;5516555;25;20918;-68
2024/04/22 06:53:24;;;;;;;158.17;151.50;;;5.80;99.90;;;;;;5517665;25;20460;-67
2024/04/22 06:55:53;;;;;;;199.43;191.63;;;5.80;99.90;;;;;;5517613;25;20469;-66
2024/04/22 06:58:19;;;;;;;140.33;133.30;;;5.90;99.90;;;;;;5487743;26;20908;-67
2024/04/22 07:00:49;;;;;;;73.60;70.07;;;5.90;99.90;;;;;;5508649;26;20464;-68
2024/04/22 07:03:18;;;;;;;77.83;73.83;;;5.80;99.90;;;;;;5505360;25;20580;-68
2024/04/22 07:05:46;;;;;;;43.03;40.10;;;5.90;99.90;;;;;;5517448;25;20518;-68
2024/04/22 07:08:12;;;;;;;38.70;36.23;;;5.80;96.40;;;;;;5485884;26;20512;-67
2024/04/22 07:10:41;;;;;;;50.80;47.23;;;5.80;96.40;;;;;;5505581;26;21011;-67
2024/04/22 07:13:07;;;;;;;58.90;55.83;;;6.00;96.50;;;;;;5507408;25;20239;-68
2024/04/22 07:15:35;;;;;;;76.33;72.40;;;6.20;96.60;;;;;;5490071;25;20461;-67
2024/04/22 07:18:01;;;;;;;48.13;45.30;;;6.40;96.60;;;;;;5495770;26;20913;-67
2024/04/22 07:20:32;;;;;;;24.67;22.50;;;6.50;92.20;;;;;;5522693;25;20575;-68
2024/04/22 07:22:58;;;;;;;30.83;28.23;;;6.50;90.00;;;;;;5512606;25;21543;-66
2024/04/22 07:25:26;;;;;;;21.83;20.03;;;6.70;90.10;;;;;;5486236;26;20473;-66
2024/04/22 07:27:52;;;;;;;18.80;15.67;;;6.60;82.50;;;;;;5485545;26;20228;-66
2024/04/22 07:30:23;;;;;;;16.80;12.80;;;6.70;76.00;;;;;;5497883;26;20541;-70
2024/04/22 07:32:49;;;;;;;14.83;12.93;;;6.70;75.00;;;;;;5489897;26;20512;-66
2024/04/22 07:35:19;;;;;;;15.47;11.70;;;6.70;75.00;;;;;;5520522;25;20460;-66
2024/04/22 07:37:48;;;;;;;15.13;13.60;;;6.70;72.30;;;;;;5515258;25;20510;-66
2024/04/22 07:40:19;;;;;;;16.67;13.23;;;6.80;75.20;;;;;;5496691;26;20360;-66
2024/04/22 07:42:47;;;;;;;16.13;11.53;;;6.90;75.20;;;;;;5514752;25;20228;-67
2024/04/22 07:45:16;;;;;;;14.57;9.63;;;7.00;75.20;;;;;;5485944;26;20437;-66
2024/04/22 07:47:42;;;;;;;15.30;8.93;;;7.20;59.60;;;;;;5486540;26;20728;-66
2024/04/22 11:14:35;;;;;;;7.77;5.50;;;8.40;53.30;;;;;;5506802;25;20604;-68
2024/04/22 11:17:01;;;;;;;8.63;4.80;;;10.70;1.00;;;;;;5470691;26;20454;-67
2024/04/22 11:19:30;;;;;;;9.75;5.45;;;11.20;1.00;;;;;;5468272;26;20380;-67
2024/04/22 11:21:57;;;;;;;8.10;4.97;;;11.90;1.00;;;;;;5469918;26;20809;-68
2024/04/22 11:24:26;;;;;;;10.35;5.13;;;12.20;1.00;;;;;;5469795;26;20412;-67
2024/04/22 11:26:52;;;;;;;7.70;4.78;;;12.90;1.00;;;;;;5469788;26;20425;-67
2024/04/22 11:29:21;;;;;;;7.97;4.82;;;12.80;1.00;;;;;;5469062;26;20453;-67
2024/04/22 11:31:52;;;;;;;8.18;5.80;;;13.10;1.00;;;;;;5468826;26;20360;-66
2024/04/22 11:34:21;;;;;;;9.98;6.30;;;13.20;1.00;;;;;;5469375;26;20405;-66
2024/04/22 11:36:52;;;;;;;8.35;4.60;;;13.30;1.00;;;;;;5468505;26;20718;-66
2024/04/22 11:39:21;;;;;;;9.30;4.80;;;14.60;1.00;;;;;;5469024;26;20459;-65
2024/04/22 11:41:47;;;;;;;7.33;4.33;;;14.00;1.00;;;;;;5469870;26;20229;-66
2024/04/22 11:44:16;;;;;;;8.37;4.00;;;13.00;1.00;;;;;;5470369;26;20458;-67
2024/04/22 11:46:41;;;;;;;8.93;5.00;;;12.70;1.00;;;;;;5454383;26;20356;-66
2024/04/22 11:49:13;;;;;;;8.23;4.43;;;12.60;1.00;;;;;;5470111;26;20271;-67
2024/04/22 11:51:38;;;;;;;8.10;3.93;;;12.00;1.00;;;;;;5469837;26;20237;-66
2024/04/22 11:54:07;;;;;;;8.20;4.70;;;11.60;1.00;;;;;;5469950;26;20545;-66
2024/04/22 11:56:35;;;;;;;7.80;4.60;;;10.70;1.00;;;;;;5470023;26;20233;-66
2024/04/22 11:59:03;;;;;;;5.60;2.90;;;9.70;1.00;;;;;;5469796;26;20562;-70
2024/04/22 12:01:30;;;;;;;5.67;2.33;;;8.60;1.00;;;;;;5469606;26;20478;-66
2024/04/22 12:03:58;;;;;;;8.80;5.82;;;7.70;1.00;;;;;;5468325;26;21003;-66
2024/04/22 12:06:27;;;;;;;8.37;5.50;;;7.50;18.70;;;;;;5470007;26;20237;-66
2024/04/22 12:08:55;;;;;;;7.33;4.20;;;6.80;25.60;;;;;;5452744;26;20544;-67
2024/04/22 12:11:21;;;;;;;9.33;5.37;;;5.90;99.90;;;;;;5453680;26;20929;-66
2024/04/22 12:13:50;;;;;;;6.80;4.70;;;5.40;96.30;;;;;;5455434;26;20484;-67
2024/04/22 12:16:15;;;;;;;11.10;10.00;;;5.40;99.90;;;;;;5417520;26;20460;-68
2024/04/22 12:18:44;;;;;;;10.97;9.97;;;5.40;99.90;;;;;;5448131;26;20470;-69
2024/04/22 12:21:10;;;;;;;44.93;42.57;;;5.60;99.90;;;;;;5452646;26;20630;-68
2024/04/22 12:23:41;;;;;;;27.77;26.03;;;5.90;99.90;;;;;;5437832;26;20526;-68
2024/04/22 12:26:07;;;;;;;54.60;52.07;;;6.20;99.90;;;;;;5439900;26;20463;-66
2024/04/22 12:28:35;;;;;;;51.20;48.70;;;6.80;99.90;;;;;;5448576;26;20467;-70
2024/04/22 12:31:01;;;;;;;37.63;35.42;;;7.30;99.90;;;;;;5440492;26;20530;-69
2024/04/22 12:33:30;;;;;;;11.55;10.18;;;7.90;99.90;;;;;;5446266;26;20417;-69
2024/04/22 12:38:34;;;;;;;28.87;27.00;;;9.40;91.20;;;;;;5468622;21;20489;-70
2024/04/22 12:41:04;;;;;;;8.10;5.30;;;10.80;97.90;;;;;;5468139;26;20387;-74
2024/04/22 12:43:32;;;;;;;8.40;5.30;;;11.90;53.70;;;;;;5449773;26;20365;-73
2024/04/22 12:45:58;;;;;;;6.87;5.00;;;12.80;28.90;;;;;;5442014;26;20281;-69
2024/04/22 12:51:11;;;;;;;7.27;4.63;;;15.40;1.00;;;;;;5465436;26;20510;-70
2024/04/22 12:53:39;;;;;;;7.30;4.47;;;15.80;1.00;;;;;;5445490;26;20868;-71
2024/04/22 12:56:11;;;;;;;6.30;3.90;;;17.10;1.00;;;;;;5445283;26;20473;-69
2024/04/22 12:58:40;;;;;;;7.70;3.43;;;17.30;1.00;;;;;;5438780;26;20820;-68
2024/04/22 13:01:09;;;;;;;7.80;4.70;;;15.70;1.00;;;;;;5451762;26;20545;-68
2024/04/22 13:03:38;;;;;;;8.97;4.43;;;16.10;1.00;;;;;;5449576;26;20501;-69
2024/04/22 13:06:07;;;;;;;7.63;4.13;;;16.20;1.00;;;;;;5439922;26;20803;-69
2024/04/22 13:08:36;;;;;;;7.43;3.70;;;16.40;1.00;;;;;;5426006;26;21109;-68
2024/04/22 13:11:04;;;;;;;7.10;3.90;;;16.10;1.00;;;;;;5445124;26;20478;-68
2024/04/22 13:13:35;;;;;;;8.60;4.00;;;16.60;1.00;;;;;;5446516;26;20513;-69
2024/04/22 13:16:01;;;;;;;6.88;4.10;;;16.20;1.00;;;;;;5431598;26;20366;-68
2024/04/22 13:18:29;;;;;;;7.47;3.80;;;16.70;1.00;;;;;;5433611;26;20412;-68
2024/04/22 13:20:58;;;;;;;9.53;3.60;;;16.80;1.00;;;;;;5440922;26;20599;-68
2024/04/22 13:23:24;;;;;;;6.30;3.80;;;16.20;1.00;;;;;;5456425;26;20518;-68
2024/04/22 13:25:52;;;;;;;6.67;3.47;;;15.60;1.00;;;;;;5466868;26;20462;-68
2024/04/22 13:28:18;;;;;;;7.20;3.50;;;16.00;1.00;;;;;;5467762;26;20716;-68
2024/04/22 13:30:50;;;;;;;8.17;4.97;;;15.70;1.00;;;;;;5468081;26;20516;-71
2024/04/22 13:33:16;;;;;;;7.60;3.30;;;16.40;1.00;;;;;;5416481;26;20223;-68
2024/04/22 13:35:45;;;;;;;6.70;3.90;;;17.90;1.00;;;;;;5454391;26;20499;-68
2024/04/22 13:38:15;;;;;;;7.47;4.30;;;18.70;1.00;;;;;;5441247;26;20350;-75
2024/04/22 13:40:41;;;;;;;8.00;4.30;;;19.50;1.00;;;;;;5447614;26;20375;-69
2024/04/22 13:43:09;;;;;;;6.60;3.67;;;20.00;1.00;;;;;;5465693;26;20280;-68
2024/04/22 13:45:35;;;;;;;9.30;4.60;;;19.10;1.00;;;;;;5455103;26;20904;-67
2024/04/22 13:48:07;;;;;;;10.50;5.23;;;18.10;1.00;;;;;;5464499;26;20482;-73
2024/04/22 13:50:33;;;;;;;9.67;4.73;;;16.70;1.00;;;;;;5462472;26;20228;-68
2024/04/22 13:53:02;;;;;;;6.97;4.27;;;15.70;1.00;;;;;;5463816;26;20526;-68
2024/04/22 13:55:28;;;;;;;7.77;4.30;;;15.10;1.00;;;;;;5440510;26;20728;-67
2024/04/22 13:57:56;;;;;;;5.10;2.37;;;12.20;1.00;;;;;;5469893;26;20490;-68
2024/04/22 14:00:22;;;;;;;5.53;3.07;;;9.80;1.00;;;;;;5464198;26;20282;-68
2024/04/22 14:02:50;;;;;;;6.27;3.03;;;8.20;1.00;;;;;;5468156;26;21012;-68
2024/04/22 14:05:19;;;;;;;6.40;3.10;;;7.50;1.00;;;;;;5449989;26;20239;-68
2024/04/22 14:07:47;;;;;;;6.13;3.30;;;7.00;1.00;;;;;;5466879;26;20466;-72
2024/04/22 14:10:13;;;;;;;10.70;4.33;;;6.70;1.00;;;;;;5422418;26;20577;-69
2024/04/22 14:12:42;;;;;;;6.37;4.27;;;6.50;3.60;;;;;;5467082;26;20890;-69
2024/04/22 14:15:07;;;;;;;7.40;5.33;;;6.30;16.00;;;;;;5443437;26;20514;-68
2024/04/22 14:17:38;;;;;;;7.30;4.37;;;6.10;25.10;;;;;;5433867;26;20480;-69
2024/04/22 14:20:06;;;;;;;8.20;5.03;;;5.90;18.40;;;;;;5456634;26;20292;-68
2024/04/22 14:22:37;;;;;;;10.53;5.90;;;5.60;24.80;;;;;;5434092;26;21018;-69
2024/04/22 14:25:03;;;;;;;8.37;4.57;;;5.50;74.10;;;;;;5461038;26;20480;-69
2024/04/22 14:27:32;;;;;;;8.80;4.87;;;5.40;91.30;;;;;;5453145;26;20805;-67
2024/04/22 14:29:58;;;;;;;8.50;7.37;;;5.20;96.20;;;;;;5444372;26;20467;-70
2024/04/22 14:32:26;;;;;;;16.63;11.40;;;5.00;99.90;;;;;;5443792;26;20574;-72
2024/04/22 14:34:52;;;;;;;17.03;15.53;;;5.10;99.90;;;;;;5448033;26;20241;-73
2024/04/22 14:37:20;;;;;;;325.63;314.30;;;5.20;99.90;;;;;;5458747;26;21227;-69
2024/04/22 14:39:49;;;;;;;600.40;574.33;;;5.40;99.90;;;;;;5445494;26;20944;-71
2024/04/22 14:42:17;;;;;;;357.67;345.07;;;5.60;99.90;;;;;;5459732;26;21098;-71
2024/04/22 14:44:43;;;;;;;724.17;685.97;;;5.80;99.90;;;;;;5459603;26;20447;-74
2024/04/22 14:47:13;;;;;;;712.57;679.00;;;6.20;99.90;;;;;;5447204;26;20876;-71
2024/04/22 14:49:39;;;;;;;536.97;515.27;;;6.40;99.90;;;;;;5443004;26;20271;-72
2024/04/22 14:52:08;;;;;;;431.03;415.13;;;6.70;96.80;;;;;;5436303;26;20509;-73
2024/04/22 14:54:33;;;;;;;221.60;213.77;;;7.00;88.60;;;;;;5450307;26;20305;-71
2024/04/22 14:57:05;;;;;;;84.17;80.10;;;7.40;83.90;;;;;;5431437;26;20480;-71
2024/04/22 14:59:32;;;;;;;63.07;59.97;;;7.70;68.60;;;;;;5414833;26;20611;-73
2024/04/22 15:02:00;;;;;;;52.10;48.87;;;8.10;76.20;;;;;;5462721;26;20874;-71
2024/04/22 15:04:26;;;;;;;29.97;27.83;;;8.70;60.80;;;;;;5461100;26;20473;-71
2024/04/22 15:06:55;;;;;;;12.67;10.70;;;9.40;53.80;;;;;;5467476;26;20511;-70
2024/04/22 15:09:21;;;;;;;11.60;10.40;;;9.20;27.30;;;;;;5438499;26;20447;-70
2024/04/22 15:11:49;;;;;;;13.27;11.77;;;9.30;35.20;;;;;;5464529;26;20574;-72
2024/04/22 15:14:18;;;;;;;11.63;9.77;;;9.50;44.40;;;;;;5457288;26;20453;-70
2024/04/22 15:16:46;;;;;;;11.03;9.10;;;9.70;27.80;;;;;;5459740;26;20457;-72
2024/04/22 15:19:12;;;;;;;9.73;8.47;;;9.60;27.50;;;;;;5458660;26;20472;-71
2024/04/22 15:21:41;;;;;;;13.60;9.57;;;9.50;27.40;;;;;;5413983;26;21058;-69
2024/04/22 15:24:07;;;;;;;10.60;8.13;;;9.40;27.30;;;;;;5455530;26;20321;-70
2024/04/22 15:26:35;;;;;;;10.53;8.97;;;9.40;27.30;;;;;;5458892;26;20541;-70
2024/04/22 15:29:02;;;;;;;12.60;9.40;;;9.60;27.50;;;;;;5454212;26;20455;-71
2024/04/22 15:31:33;;;;;;;11.00;8.00;;;9.60;20.40;;;;;;5471114;26;20458;-69
2024/04/22 15:33:59;;;;;;;11.53;7.90;;;9.40;27.00;;;;;;5467477;26;20458;-71
2024/04/22 15:36:27;;;;;;;10.43;8.00;;;9.30;20.20;;;;;;5454944;26;20610;-70
2024/04/22 15:38:57;;;;;;;12.70;9.40;;;9.10;27.10;;;;;;5448542;26;20230;-70
2024/04/22 15:41:23;;;;;;;10.87;8.80;;;8.70;26.90;;;;;;5461944;26;21028;-69
2024/04/22 15:43:52;;;;;;;10.97;9.70;;;8.60;26.80;;;;;;5454313;26;20467;-71
2024/04/22 15:46:18;;;;;;;6.60;5.20;;;8.70;26.90;;;;;;5448511;26;20521;-70
2024/04/22 15:48:49;;;;;;;13.33;9.50;;;8.80;25.50;;;;;;5426518;26;20547;-74
2024/04/22 15:51:15;;;;;;;12.00;10.20;;;8.60;26.20;;;;;;5453654;26;20577;-69
2024/04/22 15:53:43;;;;;;;10.90;9.53;;;8.80;26.90;;;;;;5466927;26;20466;-69
2024/04/22 15:56:09;;;;;;;11.97;9.40;;;9.10;27.10;;;;;;5447493;26;20661;-72
2024/04/22 15:58:40;;;;;;;11.43;9.40;;;9.40;27.30;;;;;;5444819;26;20471;-69
2024/04/22 16:01:07;;;;;;;10.53;9.33;;;9.50;24.70;;;;;;5473900;26;20510;-69
2024/04/22 16:03:35;;;;;;;11.97;10.23;;;9.50;23.60;;;;;;5474314;26;20473;-70
2024/04/22 16:06:05;;;;;;;10.40;8.60;;;9.40;26.30;;;;;;5445081;26;20512;-70
2024/04/22 16:08:33;;;;;;;10.70;9.50;;;9.10;27.00;;;;;;5475264;26;20461;-69